Time;durP1;ratioP1;P1;durP2;ratioP2;P2;SDS_P1;SDS_P2;PMS_P1;PMS_P2;Temp;Humidity;BMP_temperature;BMP_pressure;BME280_temperature;BME280_humidity;BME280_pressure;Samples;Min_cycle;Max_cycle;Signal;HPM_P1;HPM_P2
2023/08/03 00:00:18;;;;;;;4.88;1.77;;;;;;;;;;5113371;28;20047;-63
2023/08/03 00:02:46;;;;;;;3.22;1.67;;;;;;;;;;5114187;28;20502;-63
2023/08/03 00:05:13;;;;;;;4.00;1.92;;;;;;;;;;5110995;28;20048;-63
2023/08/03 00:07:42;;;;;;;4.75;1.40;;;;;;;;;;5113069;28;20048;-64
2023/08/03 00:10:10;;;;;;;4.30;1.52;;;;;;;;;;5105528;28;20075;-63
2023/08/03 00:12:37;;;;;;;4.18;1.27;;;;;;;;;;5096745;28;20055;-64
2023/08/03 00:15:04;;;;;;;5.80;1.77;;;;;;;;;;5112439;28;20051;-65
2023/08/03 00:17:31;;;;;;;3.42;1.50;;;;;;;;;;5113507;28;20043;-65
2023/08/03 00:19:58;;;;;;;3.60;1.13;;;;;;;;;;5113282;28;20055;-64
2023/08/03 00:22:25;;;;;;;3.25;1.50;;;;;;;;;;5113630;28;20055;-65
2023/08/03 00:24:55;;;;;;;7.07;1.58;;;;;;;;;;5112320;28;20051;-65
2023/08/03 00:27:26;;;;;;;4.88;1.35;;;;;;;;;;5115781;27;20058;-65
2023/08/03 00:29:53;;;;;;;7.20;1.60;;;;;;;;;;5113784;27;20062;-65
2023/08/03 00:32:22;;;;;;;4.05;1.30;;;;;;;;;;5109923;28;20423;-65
2023/08/03 00:34:49;;;;;;;7.55;1.65;;;;;;;;;;5112993;28;20055;-65
2023/08/03 00:37:16;;;;;;;4.97;1.63;;;;;;;;;;5113178;28;20063;-64
2023/08/03 00:39:45;;;;;;;3.58;1.40;;;;;;;;;;5112428;28;20423;-64
2023/08/03 00:42:12;;;;;;;3.78;1.73;;;;;;;;;;5103011;28;20055;-63
2023/08/03 00:44:41;;;;;;;4.60;1.38;;;;;;;;;;5113419;28;20051;-63
2023/08/03 00:47:08;;;;;;;4.05;1.50;;;;;;;;;;5113141;28;20055;-63
2023/08/03 00:49:35;;;;;;;4.65;1.48;;;;;;;;;;5113341;28;20065;-63
2023/08/03 00:52:01;;;;;;;5.85;1.88;;;;;;;;;;5105039;28;20393;-62
2023/08/03 00:54:28;;;;;;;3.92;1.40;;;;;;;;;;5112750;28;20048;-63
2023/08/03 00:56:55;;;;;;;3.00;1.48;;;;;;;;;;5110770;28;20043;-63
2023/08/03 00:59:22;;;;;;;2.28;1.05;;;;;;;;;;5113125;28;20052;-63
2023/08/03 01:01:50;;;;;;;3.45;1.35;;;;;;;;;;5112912;28;20052;-63
2023/08/03 01:04:17;;;;;;;2.42;1.15;;;;;;;;;;5111875;28;20063;-63
2023/08/03 01:06:44;;;;;;;3.53;1.60;;;;;;;;;;5112620;28;20051;-62
2023/08/03 01:09:14;;;;;;;2.17;1.25;;;;;;;;;;5112695;28;20043;-62
2023/08/03 01:11:45;;;;;;;3.28;1.25;;;;;;;;;;5108877;28;20369;-62
2023/08/03 01:14:12;;;;;;;6.70;1.35;;;;;;;;;;5112401;28;20514;-62
2023/08/03 01:16:38;;;;;;;3.65;1.40;;;;;;;;;;5112273;28;20052;-62
2023/08/03 01:19:08;;;;;;;10.73;1.77;;;;;;;;;;5120817;28;20047;-62
2023/08/03 01:21:38;;;;;;;3.80;1.77;;;;;;;;;;5124836;28;20052;-60
2023/08/03 01:24:08;;;;;;;2.65;1.33;;;;;;;;;;5129233;27;20051;-62
2023/08/03 01:26:35;;;;;;;2.95;1.63;;;;;;;;;;5123719;27;20049;-62
2023/08/03 01:29:01;;;;;;;4.78;1.30;;;;;;;;;;5116410;28;20052;-62
2023/08/03 01:31:29;;;;;;;4.00;1.40;;;;;;;;;;5116253;28;20075;-61
2023/08/03 01:33:58;;;;;;;2.40;1.40;;;;;;;;;;5116807;28;20390;-62
2023/08/03 01:36:24;;;;;;;3.25;1.45;;;;;;;;;;5116618;28;20377;-62
2023/08/03 01:38:55;;;;;;;6.90;1.75;;;;;;;;;;5116326;28;20377;-62
2023/08/03 01:41:24;;;;;;;3.45;1.83;;;;;;;;;;5113448;28;20048;-62
2023/08/03 01:44:04;;;;;;;4.15;2.05;;;;;;;;;;5116380;28;20495;-62
2023/08/03 01:46:34;;;;;;;3.80;1.60;;;;;;;;;;5115844;28;20051;-62
2023/08/03 01:49:00;;;;;;;2.85;1.48;;;;;;;;;;5116359;28;20055;-62
2023/08/03 01:51:30;;;;;;;4.95;1.90;;;;;;;;;;5109669;28;20048;-62
2023/08/03 01:53:56;;;;;;;3.42;1.52;;;;;;;;;;5095248;28;20048;-62
2023/08/03 01:56:25;;;;;;;6.15;2.13;;;;;;;;;;5100711;28;20054;-62
2023/08/03 01:58:51;;;;;;;7.80;2.33;;;;;;;;;;5115876;28;20054;-62
2023/08/03 02:01:18;;;;;;;15.18;3.00;;;;;;;;;;5115605;28;20051;-62
2023/08/03 02:03:45;;;;;;;5.53;2.42;;;;;;;;;;5116220;28;20059;-62
2023/08/03 02:06:12;;;;;;;5.32;2.28;;;;;;;;;;5115852;28;20052;-62
2023/08/03 02:08:38;;;;;;;3.70;2.63;;;;;;;;;;5115915;28;20051;-62
2023/08/03 02:11:05;;;;;;;4.85;1.92;;;;;;;;;;5105591;28;20052;-62
2023/08/03 02:13:33;;;;;;;4.65;2.53;;;;;;;;;;5095436;28;20052;-62
2023/08/03 02:16:01;;;;;;;3.20;2.53;;;;;;;;;;5095224;28;20052;-62
2023/08/03 02:18:29;;;;;;;5.72;2.60;;;;;;;;;;5095490;28;20051;-62
2023/08/03 02:20:56;;;;;;;5.80;3.25;;;;;;;;;;5095150;28;20523;-62
2023/08/03 02:23:23;;;;;;;5.70;2.75;;;;;;;;;;5095055;28;20052;-62
2023/08/03 02:25:51;;;;;;;7.18;3.65;;;;;;;;;;5095641;28;20051;-63
2023/08/03 02:28:18;;;;;;;8.95;3.50;;;;;;;;;;5115652;28;20067;-64
2023/08/03 02:30:46;;;;;;;5.22;2.60;;;;;;;;;;5115333;28;20408;-63
2023/08/03 02:33:13;;;;;;;7.22;2.22;;;;;;;;;;5108618;28;20052;-63
2023/08/03 02:35:40;;;;;;;5.65;2.72;;;;;;;;;;5094671;28;20052;-63
2023/08/03 02:38:06;;;;;;;3.78;2.30;;;;;;;;;;5094887;28;20059;-62
2023/08/03 02:40:33;;;;;;;7.07;3.22;;;;;;;;;;5094049;28;20052;-63
2023/08/03 02:42:59;;;;;;;7.55;2.97;;;;;;;;;;5094699;28;20059;-62
2023/08/03 02:45:26;;;;;;;5.97;2.65;;;;;;;;;;5094433;28;20052;-62
2023/08/03 02:47:55;;;;;;;6.35;3.00;;;;;;;;;;5095237;28;20056;-62
2023/08/03 02:50:22;;;;;;;6.75;2.92;;;;;;;;;;5095037;28;20489;-62
2023/08/03 02:52:49;;;;;;;7.78;3.42;;;;;;;;;;5095011;28;20056;-62
2023/08/03 02:55:16;;;;;;;6.15;3.95;;;;;;;;;;5093288;28;20424;-62
2023/08/03 02:57:43;;;;;;;4.20;3.10;;;;;;;;;;5094868;28;20048;-62
2023/08/03 03:00:10;;;;;;;7.38;4.90;;;;;;;;;;5094736;28;20055;-62
2023/08/03 03:02:37;;;;;;;7.93;3.25;;;;;;;;;;5094792;28;20469;-63
2023/08/03 03:05:05;;;;;;;5.97;2.97;;;;;;;;;;5085966;28;20063;-62
2023/08/03 03:07:33;;;;;;;8.95;3.80;;;;;;;;;;5086013;28;20059;-63
2023/08/03 03:09:59;;;;;;;8.35;3.70;;;;;;;;;;5093809;28;20048;-63
2023/08/03 03:12:26;;;;;;;9.10;4.68;;;;;;;;;;5100660;28;20051;-62
2023/08/03 03:14:53;;;;;;;7.80;3.53;;;;;;;;;;5113512;28;20051;-66
2023/08/03 03:17:20;;;;;;;5.57;3.53;;;;;;;;;;5089381;28;20484;-65
2023/08/03 03:19:46;;;;;;;5.65;4.28;;;;;;;;;;5073561;28;20397;-65
2023/08/03 03:22:15;;;;;;;5.47;3.30;;;;;;;;;;5073621;28;20402;-66
2023/08/03 03:24:41;;;;;;;8.00;5.68;;;;;;;;;;5073850;28;20056;-65
2023/08/03 03:27:08;;;;;;;9.00;4.15;;;;;;;;;;5092062;28;20048;-66
2023/08/03 03:29:35;;;;;;;7.75;3.85;;;;;;;;;;5093694;28;20048;-66
2023/08/03 03:32:02;;;;;;;6.43;3.35;;;;;;;;;;5089349;28;20051;-66
2023/08/03 03:34:29;;;;;;;8.50;4.10;;;;;;;;;;5096635;28;20066;-66
2023/08/03 03:36:55;;;;;;;4.82;3.45;;;;;;;;;;5096662;28;20497;-66
2023/08/03 03:39:23;;;;;;;7.68;3.60;;;;;;;;;;5092743;28;20071;-65
2023/08/03 03:41:50;;;;;;;4.88;3.40;;;;;;;;;;5105257;28;20048;-65
2023/08/03 03:44:17;;;;;;;6.55;3.03;;;;;;;;;;5113981;28;20059;-65
2023/08/03 03:46:44;;;;;;;6.78;3.03;;;;;;;;;;5100249;28;20059;-66
2023/08/03 03:49:10;;;;;;;4.85;2.63;;;;;;;;;;5093316;28;20409;-65
2023/08/03 03:51:37;;;;;;;4.95;2.70;;;;;;;;;;5093436;28;20413;-66
2023/08/03 03:54:04;;;;;;;4.25;2.45;;;;;;;;;;5093319;28;20052;-66
2023/08/03 03:56:32;;;;;;;6.43;2.83;;;;;;;;;;5091712;28;20400;-65
2023/08/03 03:58:59;;;;;;;5.07;2.60;;;;;;;;;;5093105;28;20056;-66
2023/08/03 04:01:26;;;;;;;8.40;2.78;;;;;;;;;;5093249;28;20048;-67
2023/08/03 04:03:53;;;;;;;4.25;2.33;;;;;;;;;;5092259;28;20056;-66
2023/08/03 04:06:20;;;;;;;5.60;2.53;;;;;;;;;;5093415;28;20509;-66
2023/08/03 04:08:47;;;;;;;3.42;2.15;;;;;;;;;;5093089;28;20051;-66
2023/08/03 04:11:13;;;;;;;3.58;1.80;;;;;;;;;;5095251;28;20051;-66
2023/08/03 04:13:41;;;;;;;4.75;2.15;;;;;;;;;;5113129;28;20052;-68
2023/08/03 04:16:08;;;;;;;4.95;2.20;;;;;;;;;;5113425;28;20054;-67
2023/08/03 04:18:35;;;;;;;2.88;2.00;;;;;;;;;;5112098;28;20056;-66
2023/08/03 04:21:02;;;;;;;3.10;1.80;;;;;;;;;;5094337;28;20375;-67
2023/08/03 04:23:29;;;;;;;3.38;1.65;;;;;;;;;;5112888;28;20074;-67
2023/08/03 04:25:55;;;;;;;4.07;1.42;;;;;;;;;;5109956;28;20051;-67
2023/08/03 04:28:22;;;;;;;3.50;1.40;;;;;;;;;;5093258;28;20052;-68
2023/08/03 04:30:50;;;;;;;4.05;1.92;;;;;;;;;;5090562;28;20728;-67
2023/08/03 04:33:17;;;;;;;4.13;1.65;;;;;;;;;;5075060;28;20057;-67
2023/08/03 04:35:44;;;;;;;4.35;1.60;;;;;;;;;;5071904;28;20048;-67
2023/08/03 04:38:11;;;;;;;3.85;1.58;;;;;;;;;;5106759;28;20499;-67
2023/08/03 04:40:38;;;;;;;4.00;1.95;;;;;;;;;;5112833;28;20400;-66
2023/08/03 04:43:06;;;;;;;3.00;1.60;;;;;;;;;;5103079;28;20476;-66
2023/08/03 04:45:32;;;;;;;3.72;1.80;;;;;;;;;;5094640;28;20067;-66
2023/08/03 04:48:01;;;;;;;5.25;1.90;;;;;;;;;;5112704;28;20373;-66
2023/08/03 04:50:27;;;;;;;3.20;1.40;;;;;;;;;;5112846;28;20047;-66
2023/08/03 04:52:54;;;;;;;2.75;1.70;;;;;;;;;;5112629;28;20052;-65
2023/08/03 04:55:21;;;;;;;3.40;1.30;;;;;;;;;;5108320;28;20055;-65
2023/08/03 04:57:48;;;;;;;2.33;1.20;;;;;;;;;;5109155;28;20052;-64
2023/08/03 05:00:15;;;;;;;4.18;1.60;;;;;;;;;;5096722;28;20040;-64
2023/08/03 05:02:41;;;;;;;2.40;1.40;;;;;;;;;;5084422;28;20048;-65
2023/08/03 05:05:10;;;;;;;3.50;1.58;;;;;;;;;;5091782;28;20056;-65
2023/08/03 05:07:37;;;;;;;4.85;2.13;;;;;;;;;;5095074;28;20071;-65
2023/08/03 05:10:04;;;;;;;4.03;1.40;;;;;;;;;;5092259;28;20052;-64
2023/08/03 05:12:30;;;;;;;2.95;1.35;;;;;;;;;;5098176;28;20062;-64
2023/08/03 05:14:57;;;;;;;5.70;1.50;;;;;;;;;;5109103;28;20058;-64
2023/08/03 05:17:24;;;;;;;2.53;1.42;;;;;;;;;;5093964;28;20048;-64
2023/08/03 05:19:51;;;;;;;2.65;1.40;;;;;;;;;;5110751;28;20074;-63
2023/08/03 05:22:19;;;;;;;2.58;1.70;;;;;;;;;;5079915;28;20048;-63
2023/08/03 05:24:46;;;;;;;2.85;1.40;;;;;;;;;;5086376;28;20052;-64
2023/08/03 05:27:13;;;;;;;3.00;1.40;;;;;;;;;;5094234;28;20044;-63
2023/08/03 05:29:42;;;;;;;2.53;1.20;;;;;;;;;;5086559;28;20061;-64
2023/08/03 05:32:09;;;;;;;2.28;1.13;;;;;;;;;;5092183;28;20070;-63
2023/08/03 05:34:36;;;;;;;3.28;1.35;;;;;;;;;;5107339;28;20504;-63
2023/08/03 05:37:03;;;;;;;1.83;1.10;;;;;;;;;;5110621;28;20048;-63
2023/08/03 05:39:31;;;;;;;2.13;1.02;;;;;;;;;;5112226;28;20055;-63
2023/08/03 05:42:00;;;;;;;2.50;1.05;;;;;;;;;;5110221;28;20063;-63
2023/08/03 05:44:27;;;;;;;2.20;1.00;;;;;;;;;;5109146;28;20070;-63
2023/08/03 05:46:53;;;;;;;3.90;1.30;;;;;;;;;;5110019;28;20055;-64
2023/08/03 05:49:20;;;;;;;1.58;0.82;;;;;;;;;;5105034;28;20051;-63
2023/08/03 05:51:47;;;;;;;1.63;0.98;;;;;;;;;;5104460;28;20048;-62
2023/08/03 05:54:15;;;;;;;2.97;1.00;;;;;;;;;;5094839;28;20052;-62
2023/08/03 05:56:43;;;;;;;3.22;0.82;;;;;;;;;;5110167;28;20043;-63
2023/08/03 05:59:16;;;;;;;3.35;1.05;;;;;;;;;;5102086;28;20052;-63
2023/08/03 06:01:43;;;;;;;2.35;1.02;;;;;;;;;;5106728;28;20043;-62
2023/08/03 06:04:10;;;;;;;5.20;1.30;;;;;;;;;;5112078;28;20048;-63
2023/08/03 06:06:37;;;;;;;1.45;0.73;;;;;;;;;;5103304;28;20056;-62
2023/08/03 06:09:04;;;;;;;2.35;0.80;;;;;;;;;;5104580;28;20392;-62
2023/08/03 06:11:31;;;;;;;1.60;1.00;;;;;;;;;;5113660;28;20048;-62
2023/08/03 06:14:00;;;;;;;3.25;0.90;;;;;;;;;;5112819;28;20142;-62
2023/08/03 06:16:26;;;;;;;2.40;0.95;;;;;;;;;;5113111;28;20388;-62
2023/08/03 06:18:54;;;;;;;2.10;1.10;;;;;;;;;;5115700;28;20385;-63
2023/08/03 06:21:21;;;;;;;2.13;1.00;;;;;;;;;;5105218;28;20052;-62
2023/08/03 06:23:49;;;;;;;2.38;0.85;;;;;;;;;;5109301;28;20511;-62
2023/08/03 06:26:17;;;;;;;1.92;0.80;;;;;;;;;;5112425;28;20497;-63
2023/08/03 06:28:44;;;;;;;1.98;0.80;;;;;;;;;;5098831;28;20492;-62
2023/08/03 06:31:14;;;;;;;1.42;0.70;;;;;;;;;;5101911;28;20087;-62
2023/08/03 06:33:42;;;;;;;2.80;0.80;;;;;;;;;;5091425;28;20048;-63
2023/08/03 06:36:10;;;;;;;1.40;0.70;;;;;;;;;;5090767;28;20063;-62
2023/08/03 06:38:37;;;;;;;1.45;0.80;;;;;;;;;;5092585;28;20052;-62
2023/08/03 06:41:04;;;;;;;4.22;1.33;;;;;;;;;;5089261;28;20044;-61
2023/08/03 06:43:31;;;;;;;3.25;0.75;;;;;;;;;;5091768;28;20052;-62
2023/08/03 06:45:58;;;;;;;2.25;0.90;;;;;;;;;;5089685;28;20408;-62
2023/08/03 06:48:26;;;;;;;1.60;0.70;;;;;;;;;;5092639;28;20052;-62
2023/08/03 06:50:53;;;;;;;17.75;1.95;;;;;;;;;;5096194;28;20052;-63
2023/08/03 06:53:20;;;;;;;20.23;2.80;;;;;;;;;;5114074;28;20055;-64
2023/08/03 06:55:48;;;;;;;21.10;2.22;;;;;;;;;;5113368;28;20070;-65
2023/08/03 06:58:15;;;;;;;6.93;1.90;;;;;;;;;;5102919;28;20052;-65
2023/08/03 07:00:42;;;;;;;97.30;8.20;;;;;;;;;;5093446;28;20052;-66
2023/08/03 07:03:09;;;;;;;16.05;3.33;;;;;;;;;;5093484;28;20052;-69
2023/08/03 07:05:37;;;;;;;6.07;3.00;;;;;;;;;;5092781;28;20051;-66
2023/08/03 07:08:04;;;;;;;5.45;3.63;;;;;;;;;;5093544;28;20052;-66
2023/08/03 07:10:31;;;;;;;3.67;2.50;;;;;;;;;;5094104;28;20055;-65
2023/08/03 07:12:57;;;;;;;3.03;2.22;;;;;;;;;;5093077;28;20059;-66
2023/08/03 07:15:24;;;;;;;3.65;2.15;;;;;;;;;;5094090;28;20060;-66
2023/08/03 07:17:51;;;;;;;5.63;2.40;;;;;;;;;;5092880;28;20052;-66
2023/08/03 07:20:18;;;;;;;2.63;2.17;;;;;;;;;;5092597;28;20169;-65
2023/08/03 07:22:48;;;;;;;4.38;2.47;;;;;;;;;;5093998;28;20059;-65
2023/08/03 07:25:15;;;;;;;4.15;2.60;;;;;;;;;;5091192;28;20063;-66
2023/08/03 07:27:44;;;;;;;3.90;2.55;;;;;;;;;;5090524;28;20053;-65
2023/08/03 07:30:11;;;;;;;4.03;2.17;;;;;;;;;;5092341;28;20052;-65
2023/08/03 07:32:38;;;;;;;3.35;2.03;;;;;;;;;;5105754;28;20519;-65
2023/08/03 07:35:05;;;;;;;3.72;2.58;;;;;;;;;;5113863;28;20062;-65
2023/08/03 07:37:32;;;;;;;4.63;2.60;;;;;;;;;;5114278;28;20495;-66
2023/08/03 07:40:00;;;;;;;2.95;1.70;;;;;;;;;;5114171;28;20058;-65
2023/08/03 07:42:27;;;;;;;4.35;2.20;;;;;;;;;;5108842;28;20472;-65
2023/08/03 07:44:54;;;;;;;5.38;2.88;;;;;;;;;;5114009;28;20377;-65
2023/08/03 07:47:21;;;;;;;2.45;1.75;;;;;;;;;;5114264;28;20043;-65
2023/08/03 07:49:47;;;;;;;4.15;2.97;;;;;;;;;;5113905;28;20058;-65
2023/08/03 07:52:14;;;;;;;3.28;1.38;;;;;;;;;;5114056;28;20399;-65
2023/08/03 07:54:42;;;;;;;4.82;1.75;;;;;;;;;;5122641;27;20055;-65
2023/08/03 07:57:15;;;;;;;3.00;1.83;;;;;;;;;;5117850;27;20066;-65
2023/08/03 07:59:42;;;;;;;3.60;2.63;;;;;;;;;;5093814;28;20052;-65
2023/08/03 08:02:08;;;;;;;2.60;1.80;;;;;;;;;;5093477;28;20055;-65
2023/08/03 08:04:35;;;;;;;2.70;2.10;;;;;;;;;;5093169;28;20044;-66
2023/08/03 08:07:02;;;;;;;2.63;2.20;;;;;;;;;;5093404;28;20048;-67
2023/08/03 08:09:29;;;;;;;4.30;1.85;;;;;;;;;;5093379;28;20052;-65
2023/08/03 08:11:55;;;;;;;3.72;2.90;;;;;;;;;;5103164;27;20081;-66
2023/08/03 08:14:24;;;;;;;4.13;3.33;;;;;;;;;;5113083;28;20051;-66
2023/08/03 08:16:50;;;;;;;3.78;2.70;;;;;;;;;;5105037;28;20366;-66
2023/08/03 08:19:17;;;;;;;3.08;2.05;;;;;;;;;;5113539;28;20047;-66
2023/08/03 08:21:44;;;;;;;3.05;2.30;;;;;;;;;;5112448;27;20052;-66
2023/08/03 08:24:11;;;;;;;3.63;2.10;;;;;;;;;;5112664;27;20056;-66
2023/08/03 08:26:37;;;;;;;2.63;2.00;;;;;;;;;;5113173;28;20059;-66
2023/08/03 08:29:04;;;;;;;2.67;2.15;;;;;;;;;;5113263;28;20052;-66
2023/08/03 08:31:32;;;;;;;4.03;2.30;;;;;;;;;;5111871;28;20451;-67
2023/08/03 08:33:59;;;;;;;3.28;2.10;;;;;;;;;;5112106;28;20416;-65
2023/08/03 08:36:26;;;;;;;3.80;1.90;;;;;;;;;;5112173;28;20052;-66
2023/08/03 08:38:53;;;;;;;1.85;1.50;;;;;;;;;;5112691;28;20051;-66
2023/08/03 08:41:19;;;;;;;2.47;1.98;;;;;;;;;;5112128;27;20051;-65
2023/08/03 08:43:46;;;;;;;2.97;2.25;;;;;;;;;;5109514;27;20059;-65
2023/08/03 08:46:13;;;;;;;2.63;1.60;;;;;;;;;;5112746;28;20070;-64
2023/08/03 08:48:41;;;;;;;2.53;1.10;;;;;;;;;;5112446;28;20051;-64
2023/08/03 08:51:08;;;;;;;2.53;1.40;;;;;;;;;;5112952;28;20082;-64
2023/08/03 08:53:35;;;;;;;9.82;1.70;;;;;;;;;;5111708;28;20052;-65
2023/08/03 08:56:02;;;;;;;2.30;1.38;;;;;;;;;;5112641;28;20052;-65
2023/08/03 08:58:29;;;;;;;2.05;1.23;;;;;;;;;;5112171;28;20059;-66
2023/08/03 09:01:03;;;;;;;2.27;0.97;;;;;;;;;;5112324;28;20062;-65
2023/08/03 09:03:45;;;;;;;2.80;1.20;;;;;;;;;;5112430;28;20432;-65
2023/08/03 09:06:13;;;;;;;1.75;1.02;;;;;;;;;;5112174;28;20066;-64
2023/08/03 09:08:49;;;;;;;2.42;1.20;;;;;;;;;;5112330;28;20082;-64
2023/08/03 09:11:15;;;;;;;5.13;1.13;;;;;;;;;;5092592;28;20059;-63
2023/08/03 09:13:42;;;;;;;2.40;1.00;;;;;;;;;;5108813;28;20066;-63
2023/08/03 09:16:22;;;;;;;2.35;1.10;;;;;;;;;;5112213;28;20396;-63
2023/08/03 09:18:49;;;;;;;2.40;1.13;;;;;;;;;;5112555;28;20052;-62
2023/08/03 09:21:19;;;;;;;3.72;0.95;;;;;;;;;;5112227;28;20056;-62
2023/08/03 09:23:46;;;;;;;3.65;1.20;;;;;;;;;;5112318;28;20047;-63
2023/08/03 09:26:13;;;;;;;4.18;1.08;;;;;;;;;;5111735;28;20520;-62
2023/08/03 09:28:40;;;;;;;2.78;0.88;;;;;;;;;;5112503;28;20382;-62
2023/08/03 09:31:08;;;;;;;3.22;1.00;;;;;;;;;;5110223;28;20056;-62
2023/08/03 09:33:35;;;;;;;2.42;1.00;;;;;;;;;;5111777;28;20528;-62
2023/08/03 09:36:02;;;;;;;4.18;1.17;;;;;;;;;;5112242;28;20384;-62
2023/08/03 09:38:30;;;;;;;3.20;1.10;;;;;;;;;;5112020;28;20484;-62
2023/08/03 09:40:58;;;;;;;3.38;1.25;;;;;;;;;;5111993;28;20058;-62
2023/08/03 09:43:26;;;;;;;2.05;1.00;;;;;;;;;;5113229;27;20056;-62
2023/08/03 09:45:53;;;;;;;2.22;1.00;;;;;;;;;;5116123;28;20051;-62
2023/08/03 09:48:20;;;;;;;2.65;1.02;;;;;;;;;;5116433;28;20058;-61
2023/08/03 09:50:48;;;;;;;2.80;0.90;;;;;;;;;;5114509;28;20059;-61
2023/08/03 09:53:16;;;;;;;2.35;1.05;;;;;;;;;;5116146;28;20460;-61
2023/08/03 09:55:47;;;;;;;2.67;1.10;;;;;;;;;;5115869;28;20589;-61
2023/08/03 09:58:15;;;;;;;2.28;0.95;;;;;;;;;;5115801;27;20545;-61
2023/08/03 10:00:44;;;;;;;3.00;0.95;;;;;;;;;;5115888;28;20052;-61
2023/08/03 10:03:11;;;;;;;2.42;1.08;;;;;;;;;;5115341;28;20054;-61
2023/08/03 10:05:40;;;;;;;2.83;1.10;;;;;;;;;;5125284;27;20058;-61
2023/08/03 10:08:10;;;;;;;2.42;0.98;;;;;;;;;;5124043;27;20056;-61
2023/08/03 10:10:41;;;;;;;2.03;0.95;;;;;;;;;;5115536;28;20422;-61
2023/08/03 10:13:09;;;;;;;2.20;1.02;;;;;;;;;;5114879;28;20047;-61
2023/08/03 10:15:36;;;;;;;2.00;1.10;;;;;;;;;;5115127;28;20488;-61
2023/08/03 10:18:04;;;;;;;2.78;1.38;;;;;;;;;;5115041;28;20047;-61
2023/08/03 10:20:31;;;;;;;2.70;0.85;;;;;;;;;;5115620;28;20395;-61
2023/08/03 10:23:07;;;;;;;2.30;1.27;;;;;;;;;;5113759;27;20055;-61
2023/08/03 10:25:35;;;;;;;1.92;0.90;;;;;;;;;;5113602;27;20052;-61
2023/08/03 10:28:13;;;;;;;2.42;1.20;;;;;;;;;;5114069;28;20066;-62
2023/08/03 10:30:54;;;;;;;3.38;1.25;;;;;;;;;;5115360;28;20052;-61
2023/08/03 10:33:21;;;;;;;2.13;1.05;;;;;;;;;;5114120;28;20051;-61
2023/08/03 10:35:49;;;;;;;2.67;1.20;;;;;;;;;;5114682;27;20048;-62
2023/08/03 10:38:18;;;;;;;2.15;1.02;;;;;;;;;;5114904;28;20082;-61
2023/08/03 10:40:45;;;;;;;2.22;1.33;;;;;;;;;;5114228;27;20052;-61
2023/08/03 10:43:13;;;;;;;2.40;1.05;;;;;;;;;;5114840;28;20040;-61
2023/08/03 10:45:40;;;;;;;3.10;1.20;;;;;;;;;;5115606;27;20051;-61
2023/08/03 10:48:25;;;;;;;2.60;1.20;;;;;;;;;;5115131;28;20047;-61
2023/08/03 10:50:58;;;;;;;3.92;1.20;;;;;;;;;;5114781;28;20055;-61
2023/08/03 10:53:25;;;;;;;3.17;1.17;;;;;;;;;;5115189;28;20052;-61
2023/08/03 10:55:56;;;;;;;2.42;1.15;;;;;;;;;;5113855;28;20461;-61
2023/08/03 10:58:24;;;;;;;2.55;1.27;;;;;;;;;;5112697;27;20047;-61
2023/08/03 11:00:51;;;;;;;1.98;1.15;;;;;;;;;;5114772;28;20055;-61
2023/08/03 11:03:18;;;;;;;1.80;1.10;;;;;;;;;;5113879;27;20484;-61
2023/08/03 11:05:53;;;;;;;2.92;1.20;;;;;;;;;;5114312;28;20479;-61
2023/08/03 11:08:20;;;;;;;2.70;1.50;;;;;;;;;;5114362;28;20051;-60
2023/08/03 11:10:49;;;;;;;3.42;1.10;;;;;;;;;;5114347;28;20404;-60
2023/08/03 11:13:16;;;;;;;6.13;1.75;;;;;;;;;;5113399;27;20040;-60
2023/08/03 11:15:44;;;;;;;2.63;1.27;;;;;;;;;;5114145;28;20055;-60
2023/08/03 11:18:14;;;;;;;3.88;1.33;;;;;;;;;;5114141;28;20480;-61
2023/08/03 11:20:41;;;;;;;4.10;1.30;;;;;;;;;;5113057;27;20048;-61
2023/08/03 11:23:11;;;;;;;3.28;1.52;;;;;;;;;;5114450;27;20047;-60
2023/08/03 11:25:38;;;;;;;4.63;1.70;;;;;;;;;;5114218;28;20404;-61
2023/08/03 11:28:05;;;;;;;3.65;1.55;;;;;;;;;;5113450;27;20044;-60
2023/08/03 11:30:32;;;;;;;4.53;1.55;;;;;;;;;;5114274;28;20051;-60
2023/08/03 11:33:00;;;;;;;3.30;1.50;;;;;;;;;;5113705;28;20051;-60
2023/08/03 11:35:27;;;;;;;2.95;1.20;;;;;;;;;;5114048;28;20052;-60
2023/08/03 11:37:54;;;;;;;2.05;1.33;;;;;;;;;;5113343;27;20058;-61
2023/08/03 11:40:20;;;;;;;2.88;1.50;;;;;;;;;;5111679;28;20063;-60
2023/08/03 11:42:47;;;;;;;3.47;1.48;;;;;;;;;;5114080;27;20054;-61
2023/08/03 11:45:14;;;;;;;3.83;1.40;;;;;;;;;;5113627;28;20054;-61
2023/08/03 11:47:41;;;;;;;3.90;1.52;;;;;;;;;;5113575;28;20048;-60
2023/08/03 11:50:09;;;;;;;3.47;1.42;;;;;;;;;;5113510;28;20074;-60
2023/08/03 11:52:36;;;;;;;3.33;1.58;;;;;;;;;;5114109;28;20066;-60
2023/08/03 11:55:04;;;;;;;4.97;1.85;;;;;;;;;;5113551;28;20055;-61
2023/08/03 12:00:15;;;;;;;5.63;1.50;;;;;;;;;;5119695;28;20401;-60
2023/08/03 12:02:43;;;;;;;3.83;1.58;;;;;;;;;;5113513;28;20044;-61
2023/08/03 12:05:12;;;;;;;6.88;1.60;;;;;;;;;;5113273;28;20055;-60
2023/08/03 12:07:37;;;;;;;3.17;1.38;;;;;;;;;;5113559;28;20381;-61
2023/08/03 12:10:11;;;;;;;4.43;1.60;;;;;;;;;;5114860;27;20097;-61
2023/08/03 12:12:37;;;;;;;4.20;1.95;;;;;;;;;;5118873;27;20047;-60
2023/08/03 12:15:05;;;;;;;5.03;1.70;;;;;;;;;;5113504;28;20051;-61
2023/08/03 12:17:31;;;;;;;3.40;1.60;;;;;;;;;;5113464;28;20063;-60
2023/08/03 12:19:58;;;;;;;3.72;1.40;;;;;;;;;;5112746;28;20055;-61
2023/08/03 12:22:26;;;;;;;3.65;1.52;;;;;;;;;;5112989;28;20381;-61
2023/08/03 12:24:53;;;;;;;3.13;1.70;;;;;;;;;;5112870;28;20055;-60
2023/08/03 12:27:20;;;;;;;4.13;1.55;;;;;;;;;;5111811;27;20056;-61
2023/08/03 12:29:46;;;;;;;3.90;1.95;;;;;;;;;;5112367;27;20055;-61
2023/08/03 12:32:13;;;;;;;3.05;1.60;;;;;;;;;;5112726;28;20052;-61
2023/08/03 12:34:41;;;;;;;3.53;1.60;;;;;;;;;;5112792;28;20044;-61
2023/08/03 12:37:08;;;;;;;5.28;1.90;;;;;;;;;;5112961;28;20055;-61
2023/08/03 12:39:36;;;;;;;2.88;1.55;;;;;;;;;;5112898;28;20095;-61
2023/08/03 12:42:03;;;;;;;4.88;1.67;;;;;;;;;;5113088;27;20055;-61
2023/08/03 12:44:30;;;;;;;4.25;1.48;;;;;;;;;;5111171;28;20055;-61
2023/08/03 12:46:56;;;;;;;4.60;2.05;;;;;;;;;;5111214;28;20047;-60
2023/08/03 12:49:23;;;;;;;5.65;1.77;;;;;;;;;;5112619;28;20047;-60
2023/08/03 12:51:50;;;;;;;4.82;1.85;;;;;;;;;;5111772;28;20488;-61
2023/08/03 12:54:17;;;;;;;3.33;1.60;;;;;;;;;;5112693;28;20047;-61
2023/08/03 12:56:46;;;;;;;4.40;1.60;;;;;;;;;;5111327;28;20404;-60
2023/08/03 12:59:13;;;;;;;2.60;1.40;;;;;;;;;;5112761;28;20058;-60
2023/08/03 13:01:39;;;;;;;3.25;1.55;;;;;;;;;;5112496;28;20060;-60
2023/08/03 13:04:06;;;;;;;3.13;1.52;;;;;;;;;;5112239;28;20052;-61
2023/08/03 13:06:33;;;;;;;3.35;1.50;;;;;;;;;;5112345;28;20051;-61
2023/08/03 13:09:00;;;;;;;5.53;1.65;;;;;;;;;;5110589;28;20047;-61
2023/08/03 13:11:27;;;;;;;4.10;1.75;;;;;;;;;;5112359;28;20047;-60
2023/08/03 13:13:55;;;;;;;2.83;1.40;;;;;;;;;;5112227;28;20048;-60
2023/08/03 13:16:22;;;;;;;3.90;1.45;;;;;;;;;;5112063;28;20396;-60
2023/08/03 13:18:50;;;;;;;3.17;1.30;;;;;;;;;;5114652;28;20055;-60
2023/08/03 13:21:16;;;;;;;2.55;1.40;;;;;;;;;;5116425;28;20051;-60
2023/08/03 13:23:43;;;;;;;3.03;1.35;;;;;;;;;;5116764;28;20044;-60
2023/08/03 13:26:10;;;;;;;2.55;1.30;;;;;;;;;;5116993;28;20388;-60
2023/08/03 13:28:37;;;;;;;2.13;1.17;;;;;;;;;;5114125;27;20066;-60
2023/08/03 13:31:05;;;;;;;2.78;1.33;;;;;;;;;;5115862;28;20472;-60
2023/08/03 13:33:31;;;;;;;3.45;1.50;;;;;;;;;;5116146;28;20137;-60
2023/08/03 13:35:58;;;;;;;2.75;1.30;;;;;;;;;;5114565;27;20403;-59
2023/08/03 13:38:27;;;;;;;3.05;1.50;;;;;;;;;;5115385;27;20055;-59
2023/08/03 13:40:53;;;;;;;2.47;1.10;;;;;;;;;;5115787;28;20054;-59
2023/08/03 13:43:20;;;;;;;2.72;1.10;;;;;;;;;;5115806;27;20051;-59
2023/08/03 13:45:47;;;;;;;2.55;1.20;;;;;;;;;;5115766;28;20054;-59
2023/08/03 13:48:15;;;;;;;1.95;1.08;;;;;;;;;;5115651;28;20051;-60
2023/08/03 13:50:42;;;;;;;1.80;0.90;;;;;;;;;;5116335;28;20055;-59
2023/08/03 13:53:09;;;;;;;3.22;1.40;;;;;;;;;;5116039;28;20079;-59
2023/08/03 13:55:36;;;;;;;4.15;1.10;;;;;;;;;;5115074;27;20063;-59
2023/08/03 13:58:02;;;;;;;2.20;0.90;;;;;;;;;;5110924;27;20054;-59
2023/08/03 14:00:30;;;;;;;2.30;1.08;;;;;;;;;;5111123;28;20068;-59
2023/08/03 14:02:59;;;;;;;3.90;1.30;;;;;;;;;;5115849;28;20051;-59
2023/08/03 14:05:27;;;;;;;2.92;1.25;;;;;;;;;;5115397;28;20437;-60
2023/08/03 14:07:54;;;;;;;3.42;1.27;;;;;;;;;;5115814;28;20051;-59
2023/08/03 14:10:21;;;;;;;2.78;1.20;;;;;;;;;;5115082;28;20050;-60
2023/08/03 14:12:48;;;;;;;1.60;1.10;;;;;;;;;;5114391;27;20477;-59
2023/08/03 14:15:15;;;;;;;1.95;0.98;;;;;;;;;;5114590;28;20055;-60
2023/08/03 14:17:41;;;;;;;2.47;1.10;;;;;;;;;;5114864;27;20050;-59
2023/08/03 14:20:08;;;;;;;2.60;1.20;;;;;;;;;;5114617;28;20063;-60
2023/08/03 14:22:36;;;;;;;2.33;1.30;;;;;;;;;;5122819;27;20368;-60
2023/08/03 14:25:03;;;;;;;2.17;1.30;;;;;;;;;;5135655;27;20054;-59
2023/08/03 14:27:31;;;;;;;2.60;1.05;;;;;;;;;;5132877;27;20058;-59
2023/08/03 14:30:00;;;;;;;1.45;0.90;;;;;;;;;;5112285;28;20051;-59
2023/08/03 14:32:27;;;;;;;;;;;;;;;;;;5115748;28;20519;-59
2023/08/03 14:34:54;;;;;;;2.00;0.90;;;;;;;;;;5115168;28;19920;-59
2023/08/03 14:37:20;;;;;;;3.05;1.05;;;;;;;;;;5115156;28;20484;-59
2023/08/03 14:39:48;;;;;;;2.35;0.95;;;;;;;;;;5114908;28;20052;-59
2023/08/03 14:42:15;;;;;;;3.25;1.00;;;;;;;;;;5115487;28;20059;-59
2023/08/03 14:44:42;;;;;;;2.90;1.20;;;;;;;;;;5113629;27;20048;-59
2023/08/03 14:47:09;;;;;;;3.38;1.58;;;;;;;;;;5114258;28;20055;-59